Mc Knightstown, Pennsylvania
Current Conditions -  °F | °C
As of 1:53 AM on Wednesday 22 Oct 2014 (Local Time) from KRYT Reporting Station
Overcast Overcast  
Wind Chill: 52°   Ceiling: 7500
Heat Index: 52°   Visibility: 10mi
Dew Point: 46°   Wind: 3mph
Humidity: 80%   Direction: NA
Pressure: 29.89"   Gusts: NA
Location:  39.8752°N, 77.3219°W
Report Text: KRYT 220553Z AUTO VRB03KT 10SM SCT039 SCT049 OVC075 11/08 A2989 RMK AO2 SLP117 60002 T01110078 10117 20100 58006 $
Loading
Personal Weather Stations






























Interactive Weather Map
Tropical Storm Tracking
New forecast layout! Learn more

10-Day Weather Forecast

Advertisements
Track Severe Weather on mobile